Terminal Aerodrome Forecast
Issued by NWS

Home | Current Version | Previous Version | Text Only | Print | Product List | Glossary On
Versions: 1 2 3 4 5 6 7 8 9 10 11 12 13 14 15 16 17 18 19 20 21 22 23
000
FTUS46 KSEW 301100 RRA
TAFBFI
TAF
KBFI 301151Z 3012/0112 15005KT P6SM SCT015 BKN090
      TEMPO 3012/3014 BKN015 BKN090
     FM301400 17005KT P6SM OVC015
     FM302000 20006KT P6SM BKN035 OVC050 PROB30 3021/3024 -SHRA
     FM010000 VRB05KT P6SM SCT035 BKN050 PROB30 0100/0106 -SHRA
     FM010600 VRB03KT P6SM BKN030 BKN050=

USA.gov is the U.S. government's official web portal to all federal, state and local government web resources and services.